Markham, Canada
Current Conditions -  °F | °C
As of 7:00 PM on Friday 24 Oct 2014 (Local Time) from CYKZ Reporting Station
Few Clouds Few Clouds  
Wind Chill: 11°   Ceiling: Unl
Heat Index: 11°   Visibility: 15mi
Dew Point:   Wind: 2mph
Humidity: 67%   Direction: 170°S
Pressure: 29.94"   Gusts: NA
Location:  43.86°N, 79.34°W
Report Text: CYKZ 242300Z 17002KT 15SM FEW160 11/05 A2994 RMK AC1 SLP141
Loading
Personal Weather Stations






























Interactive Weather Map
Tropical Storm Tracking
New forecast layout! Learn more

10-Day Weather Forecast

Advertisements
Track Severe Weather on mobile